Time;durP1;ratioP1;P1;durP2;ratioP2;P2;SDS_P1;SDS_P2;PMS_P1;PMS_P2;Temp;Humidity;BMP_temperature;BMP_pressure;BME280_temperature;BME280_humidity;BME280_pressure;Samples;Min_cycle;Max_cycle;Signal;HPM_P1;HPM_P2
2021/11/10 00:00:09;;;;;;;;;;;;;;;2.77;100.00;102123.28;5092047;28;19950;-75
2021/11/10 00:02:40;;;;;;;;;;;;;;;2.71;100.00;102119.88;5091982;28;19924;-75
2021/11/10 00:05:08;;;;;;;;;;;;;;;2.63;100.00;102117.41;5091520;28;20024;-75
2021/11/10 00:07:40;;;;;;;;;;;;;;;2.54;100.00;102117.63;5091593;28;20274;-75
2021/11/10 00:10:06;;;;;;;;;;;;;;;2.45;100.00;102108.91;5073719;28;20022;-75
2021/11/10 00:12:33;;;;;;;;;;;;;;;2.42;100.00;102103.63;5091876;28;20478;-75
2021/11/10 00:14:59;;;;;;;;;;;;;;;2.31;100.00;102105.69;5091760;28;19964;-75
2021/11/10 00:17:26;;;;;;;;;;;;;;;2.19;100.00;102104.19;5091553;28;20003;-74
2021/11/10 00:19:52;;;;;;;;;;;;;;;2.13;100.00;102109.69;5091564;28;20438;-75
2021/11/10 00:22:20;;;;;;;;;;;;;;;2.20;100.00;102105.94;5091769;28;19950;-75
2021/11/10 00:24:46;;;;;;;;;;;;;;;2.16;100.00;102109.63;5091285;28;19924;-75
2021/11/10 00:27:12;;;;;;;;;;;;;;;2.18;100.00;102108.66;5091567;28;19932;-74
2021/11/10 00:29:38;;;;;;;;;;;;;;;2.19;100.00;102096.13;5091192;28;19978;-75
2021/11/10 00:32:05;;;;;;;;;;;;;;;2.12;100.00;102103.44;5091476;28;20015;-74
2021/11/10 00:34:32;;;;;;;;;;;;;;;2.11;100.00;102093.66;5091564;28;20444;-74
2021/11/10 00:36:58;;;;;;;;;;;;;;;2.11;100.00;102100.81;5091404;28;19985;-75
2021/11/10 00:39:25;;;;;;;;;;;;;;;2.01;100.00;102102.84;5091263;28;19971;-74
2021/11/10 00:41:52;;;;;;;;;;;;;;;1.87;100.00;102107.63;5091265;28;20405;-74
2021/11/10 00:44:18;;;;;;;;;;;;;;;1.68;100.00;102097.31;5069863;28;19951;-74
2021/11/10 00:46:44;;;;;;;;;;;;;;;1.51;100.00;102111.09;5091296;28;19927;-74
2021/11/10 00:49:11;;;;;;;;;;;;;;;1.41;100.00;102109.50;5073219;28;19951;-74
2021/11/10 00:51:37;;;;;;;;;;;;;;;1.32;100.00;102102.53;5073466;28;19960;-74
2021/11/10 00:54:04;;;;;;;;;;;;;;;1.21;100.00;102112.59;5107037;28;19928;-74
2021/11/10 00:56:31;;;;;;;;;;;;;;;1.11;100.00;102101.19;5091369;28;20014;-74
2021/11/10 00:58:59;;;;;;;;;;;;;;;1.01;100.00;102111.19;5077068;28;20005;-76
2021/11/10 01:01:26;;;;;;;;;;;;;;;0.92;100.00;102106.91;5076993;28;19924;-76
2021/11/10 01:03:52;;;;;;;;;;;;;;;0.91;100.00;102109.59;5079850;28;20476;-75
2021/11/10 01:06:19;;;;;;;;;;;;;;;0.90;100.00;102110.53;5095421;28;19991;-75
2021/11/10 01:08:45;;;;;;;;;;;;;;;0.97;100.00;102110.34;5076903;28;20343;-73
2021/11/10 01:11:11;;;;;;;;;;;;;;;0.98;100.00;102105.91;5077244;28;19928;-74
2021/11/10 01:13:40;;;;;;;;;;;;;;;1.00;100.00;102104.06;5077155;28;19924;-74
2021/11/10 01:16:09;;;;;;;;;;;;;;;1.04;100.00;102103.09;5077090;28;19977;-74
2021/11/10 01:18:36;;;;;;;;;;;;;;;1.00;100.00;102099.63;5076722;28;20365;-74
2021/11/10 01:21:06;;;;;;;;;;;;;;;0.98;100.00;102105.91;5076968;28;19977;-73
2021/11/10 01:23:32;;;;;;;;;;;;;;;0.94;100.00;102090.84;5076942;28;19989;-75
2021/11/10 01:25:59;;;;;;;;;;;;;;;0.92;100.00;102090.88;5076619;28;20736;-75
2021/11/10 01:28:26;;;;;;;;;;;;;;;0.92;100.00;102095.31;5076623;28;19977;-75
2021/11/10 01:30:54;;;;;;;;;;;;;;;0.86;100.00;102090.09;5076868;28;19924;-75
2021/11/10 01:33:23;;;;;;;;;;;;;;;0.81;100.00;102085.69;5076775;28;19974;-76
2021/11/10 01:35:50;;;;;;;;;;;;;;;0.74;100.00;102075.16;5076695;28;20020;-75
2021/11/10 01:38:21;;;;;;;;;;;;;;;0.64;100.00;102072.66;5094118;28;20019;-76
2021/11/10 01:40:47;;;;;;;;;;;;;;;0.55;100.00;102070.16;5094723;28;19924;-74
2021/11/10 01:43:15;;;;;;;;;;;;;;;0.47;100.00;102062.25;5076537;28;19971;-74
2021/11/10 01:45:44;;;;;;;;;;;;;;;0.42;100.00;102052.56;5076471;28;20443;-74
2021/11/10 01:48:12;;;;;;;;;;;;;;;0.40;100.00;102049.03;5094480;28;19928;-75
2021/11/10 01:50:38;;;;;;;;;;;;;;;0.36;100.00;102042.88;5094411;28;19924;-76
2021/11/10 01:53:09;;;;;;;;;;;;;;;0.37;100.00;102043.75;5094504;28;20018;-75
2021/11/10 01:55:35;;;;;;;;;;;;;;;0.45;100.00;102048.03;5076478;28;20495;-75
2021/11/10 01:58:02;;;;;;;;;;;;;;;0.52;100.00;102042.59;5094248;28;19985;-75
2021/11/10 02:00:33;;;;;;;;;;;;;;;0.54;100.00;102035.44;5076300;28;19935;-76
2021/11/10 02:03:07;;;;;;;;;;;;;;;0.47;100.00;102032.00;5110287;28;20015;-74
2021/11/10 02:06:01;;;;;;;;;;;;;;;0.43;100.00;102036.50;5091321;28;19924;-76
2021/11/10 02:08:46;;;;;;;;;;;;;;;0.37;100.00;102027.72;5108916;28;20301;-74
2021/11/10 02:11:23;;;;;;;;;;;;;;;0.28;100.00;102024.31;5076094;28;19924;-76
2021/11/10 02:14:09;;;;;;;;;;;;;;;0.20;100.00;102017.34;5076279;28;19931;-75
2021/11/10 02:16:39;;;;;;;;;;;;;;;0.13;100.00;102025.47;5075875;28;19931;-75
2021/11/10 02:19:08;;;;;;;;;;;;;;;0.05;100.00;102022.03;5075738;28;19924;-75
2021/11/10 02:21:43;;;;;;;;;;;;;;;-0.02;100.00;102009.69;5075968;28;19924;-75
2021/11/10 02:24:09;;;;;;;;;;;;;;;-0.09;100.00;102014.25;5075983;28;19931;-75
2021/11/10 02:26:35;;;;;;;;;;;;;;;-0.14;100.00;102015.25;5075793;28;20041;-75
2021/11/10 02:29:01;;;;;;;;;;;;;;;-0.21;100.00;102001.97;5075383;28;20458;-75
2021/11/10 02:31:33;;;;;;;;;;;;;;;-0.29;100.00;101995.88;5093922;28;20020;-75
2021/11/10 02:33:59;;;;;;;;;;;;;;;-0.33;100.00;101999.50;5093643;28;19927;-75
2021/11/10 02:36:26;;;;;;;;;;;;;;;-0.29;100.00;101995.00;5074213;28;19938;-75
2021/11/10 02:38:53;;;;;;;;;;;;;;;-0.29;100.00;102006.56;5091379;28;19932;-75
2021/11/10 02:41:20;;;;;;;;;;;;;;;-0.28;100.00;102002.09;5075294;28;20369;-75
2021/11/10 02:43:46;;;;;;;;;;;;;;;-0.32;100.00;101995.94;5075355;28;19928;-73
2021/11/10 02:46:13;;;;;;;;;;;;;;;-0.33;100.00;101988.84;5093281;28;19928;-75
2021/11/10 02:48:39;;;;;;;;;;;;;;;-0.36;100.00;101986.19;5093198;28;19977;-75
2021/11/10 02:51:07;;;;;;;;;;;;;;;-0.43;100.00;101979.19;5093324;28;20557;-75
2021/11/10 02:53:34;;;;;;;;;;;;;;;-0.47;100.00;101977.47;5093268;28;19931;-74
2021/11/10 02:56:01;;;;;;;;;;;;;;;-0.48;100.00;101976.63;5093248;28;20385;-74
2021/11/10 02:58:31;;;;;;;;;;;;;;;-0.45;100.00;101973.03;5074930;28;19963;-74
2021/11/10 03:00:57;;;;;;;;;;;;;;;-0.44;100.00;101966.75;5108932;28;20320;-74
2021/11/10 03:03:24;;;;;;;;;;;;;;;-0.43;100.00;101957.84;5074995;28;19924;-74
2021/11/10 03:05:53;;;;;;;;;;;;;;;-0.40;100.00;101958.69;5074981;28;20403;-74
2021/11/10 03:08:22;;;;;;;;;;;;;;;-0.42;100.00;101956.97;5074557;28;19932;-74
2021/11/10 03:10:55;;;;;;;;;;;;;;;-0.42;100.00;101957.81;5074640;28;19970;-74
2021/11/10 03:13:23;;;;;;;;;;;;;;;-0.42;100.00;101959.63;5074862;28;19927;-74
2021/11/10 03:15:50;;;;;;;;;;;;;;;-0.40;100.00;101955.13;5092932;28;19930;-74
2021/11/10 03:18:17;;;;;;;;;;;;;;;-0.47;100.00;101949.00;5074587;28;19928;-75
2021/11/10 03:20:46;;;;;;;;;;;;;;;-0.41;100.00;101948.91;5073430;28;19928;-74
2021/11/10 03:23:12;;;;;;;;;;;;;;;-0.42;100.00;101948.94;5074714;28;19976;-74
2021/11/10 03:25:40;;;;;;;;;;;;;;;-0.31;100.00;101954.97;5074543;28;19924;-74
2021/11/10 03:28:07;;;;;;;;;;;;;;;-0.32;100.00;101952.34;5074295;28;19931;-74
2021/11/10 03:30:34;;;;;;;;;;;;;;;-0.29;100.00;101946.97;5074377;28;19928;-74
2021/11/10 03:33:02;;;;;;;;;;;;;;;-0.31;100.00;101946.97;5074397;28;19970;-74
2021/11/10 03:35:29;;;;;;;;;;;;;;;-0.34;100.00;101945.25;5074490;28;19924;-74
2021/11/10 03:37:58;;;;;;;;;;;;;;;-0.25;100.00;101938.88;5074328;28;20307;-74
2021/11/10 03:40:27;;;;;;;;;;;;;;;-0.25;100.00;101935.34;5074272;28;19928;-74
2021/11/10 03:42:54;;;;;;;;;;;;;;;-0.18;100.00;101934.31;5074268;28;19925;-74
2021/11/10 03:45:26;;;;;;;;;;;;;;;-0.18;100.00;101935.19;5079235;28;19924;-74
2021/11/10 03:47:57;;;;;;;;;;;;;;;-0.26;100.00;101942.44;5073962;28;19924;-75
2021/11/10 03:50:23;;;;;;;;;;;;;;;-0.32;100.00;101937.22;5074411;28;20026;-74
2021/11/10 03:52:50;;;;;;;;;;;;;;;-0.36;100.00;101944.41;5074188;28;20311;-75
2021/11/10 03:55:17;;;;;;;;;;;;;;;-0.35;100.00;101943.50;5074059;28;20018;-74
2021/11/10 03:57:45;;;;;;;;;;;;;;;-0.35;100.00;101951.50;5073796;28;20293;-74
2021/11/10 04:00:12;;;;;;;;;;;;;;;-0.37;100.00;101947.09;5091945;28;19932;-75
2021/11/10 04:02:42;;;;;;;;;;;;;;;-0.43;100.00;101939.19;5091974;28;19928;-74
2021/11/10 04:05:13;;;;;;;;;;;;;;;-0.54;100.00;101937.56;5073911;28;19977;-74
2021/11/10 04:07:41;;;;;;;;;;;;;;;-0.56;100.00;101939.38;5073479;28;20031;-74
2021/11/10 04:10:09;;;;;;;;;;;;;;;-0.61;100.00;101938.56;5073687;28;19985;-74
2021/11/10 04:12:35;;;;;;;;;;;;;;;-0.64;100.00;101941.28;5091825;28;19963;-74
2021/11/10 04:15:01;;;;;;;;;;;;;;;-0.66;100.00;101952.88;5073843;28;19924;-74
2021/11/10 04:17:28;;;;;;;;;;;;;;;-0.67;100.00;101941.31;5073534;28;19964;-74
2021/11/10 04:19:55;;;;;;;;;;;;;;;-0.68;100.00;101939.56;5073477;28;19931;-74
2021/11/10 04:22:23;;;;;;;;;;;;;;;-0.76;100.00;101928.13;5073559;28;19974;-74
2021/11/10 04:24:51;;;;;;;;;;;;;;;-0.85;100.00;101930.00;5073434;28;19928;-75
2021/11/10 04:27:20;;;;;;;;;;;;;;;-0.92;100.00;101935.44;5073441;28;19928;-74
2021/11/10 04:29:48;;;;;;;;;;;;;;;-0.99;100.00;101926.66;5107253;28;19955;-74
2021/11/10 04:32:14;;;;;;;;;;;;;;;-1.02;100.00;101929.38;5073296;28;19932;-74
2021/11/10 04:34:42;;;;;;;;;;;;;;;-1.06;100.00;101933.00;5073421;28;20350;-74
2021/11/10 04:37:10;;;;;;;;;;;;;;;-1.10;100.00;101926.81;5071181;28;19931;-75
2021/11/10 04:39:38;;;;;;;;;;;;;;;-1.10;100.00;101928.59;5090658;28;19924;-74
2021/11/10 04:42:08;;;;;;;;;;;;;;;-1.10;100.00;101936.59;5073088;28;21565;-74
2021/11/10 04:44:36;;;;;;;;;;;;;;;-1.12;100.00;101931.28;5073125;28;20409;-74
2021/11/10 04:47:03;;;;;;;;;;;;;;;-1.14;100.00;101930.41;5073331;28;19928;-73
2021/11/10 04:49:30;;;;;;;;;;;;;;;-1.14;100.00;101930.41;5106975;28;19928;-75
2021/11/10 04:51:57;;;;;;;;;;;;;;;-1.13;100.00;101932.19;5091446;28;20062;-73
2021/11/10 04:54:23;;;;;;;;;;;;;;;-1.14;100.00;101940.22;5091563;28;20026;-73
2021/11/10 04:56:51;;;;;;;;;;;;;;;-1.15;100.00;101935.78;5073308;28;19928;-73
2021/11/10 04:59:17;;;;;;;;;;;;;;;-1.17;100.00;101940.25;5073270;28;19934;-73
2021/11/10 05:01:51;;;;;;;;;;;;;;;-1.14;100.00;101948.19;5073380;28;19940;-73
2021/11/10 05:04:18;;;;;;;;;;;;;;;-1.13;100.00;101937.53;5091109;28;19974;-73
2021/11/10 05:06:44;;;;;;;;;;;;;;;-1.15;100.00;101933.97;5073215;28;19932;-73
2021/11/10 05:09:11;;;;;;;;;;;;;;;-1.15;100.00;101933.97;5072901;28;20546;-73
2021/11/10 05:11:38;;;;;;;;;;;;;;;-1.12;100.00;101930.41;5073253;28;19986;-73
2021/11/10 05:14:06;;;;;;;;;;;;;;;-1.21;100.00;101926.94;5073092;28;19933;-74
2021/11/10 05:16:32;;;;;;;;;;;;;;;-1.25;100.00;101919.03;5091122;28;19930;-73
2021/11/10 05:19:02;;;;;;;;;;;;;;;-1.23;100.00;101918.13;5072678;28;19972;-73
2021/11/10 05:21:28;;;;;;;;;;;;;;;-1.27;100.00;101924.38;5072689;28;19989;-73
2021/11/10 05:23:55;;;;;;;;;;;;;;;-1.31;100.00;101922.66;5091060;28;19932;-73
2021/11/10 05:26:21;;;;;;;;;;;;;;;-1.30;100.00;101924.41;5091076;28;20020;-73
2021/11/10 05:28:47;;;;;;;;;;;;;;;-1.27;100.00;101921.72;5090712;28;19970;-73
2021/11/10 05:31:15;;;;;;;;;;;;;;;-1.29;100.00;101915.50;5091045;28;20022;-74
2021/11/10 05:33:41;;;;;;;;;;;;;;;-1.37;100.00;101917.41;5091138;28;20460;-73
2021/11/10 05:36:07;;;;;;;;;;;;;;;-1.42;100.00;101917.44;5090973;28;20020;-73
2021/11/10 05:38:34;;;;;;;;;;;;;;;-1.44;100.00;101915.69;5090792;28;19964;-74
2021/11/10 05:41:00;;;;;;;;;;;;;;;-1.51;100.00;101922.88;5090313;28;20018;-75
2021/11/10 05:43:27;;;;;;;;;;;;;;;-1.53;100.00;101919.38;5090909;28;20023;-74
2021/11/10 05:45:53;;;;;;;;;;;;;;;-1.52;100.00;101911.34;5094623;28;20301;-74
2021/11/10 05:48:21;;;;;;;;;;;;;;;-1.53;100.00;101928.22;5076079;28;20354;-74
2021/11/10 05:50:47;;;;;;;;;;;;;;;-1.54;100.00;101910.50;5092626;28;20020;-74
2021/11/10 05:53:14;;;;;;;;;;;;;;;-1.60;100.00;101905.25;5094124;28;19951;-74
2021/11/10 05:55:41;;;;;;;;;;;;;;;-1.64;100.00;101906.19;5094357;28;19924;-75
2021/11/10 05:58:08;;;;;;;;;;;;;;;-1.62;100.00;101911.47;5094048;28;19924;-74
2021/11/10 06:00:34;;;;;;;;;;;;;;;-1.52;100.00;101902.50;5094114;28;19928;-74
2021/11/10 06:03:00;;;;;;;;;;;;;;;-1.48;100.00;101901.56;5093721;28;19964;-74
2021/11/10 06:05:28;;;;;;;;;;;;;;;-1.49;100.00;101901.56;5094020;28;19963;-73
2021/11/10 06:07:55;;;;;;;;;;;;;;;-1.52;100.00;101903.38;5093676;28;19955;-73
2021/11/10 06:10:22;;;;;;;;;;;;;;;-1.53;100.00;101906.91;5093814;28;20015;-73
2021/11/10 06:12:49;;;;;;;;;;;;;;;-1.52;100.00;101903.38;5092828;28;19928;-74
2021/11/10 06:15:15;;;;;;;;;;;;;;;-1.52;100.00;101911.34;5093022;28;19970;-73
2021/11/10 06:17:42;;;;;;;;;;;;;;;-1.54;100.00;101910.50;5093411;28;20019;-73
2021/11/10 06:20:09;;;;;;;;;;;;;;;-1.59;100.00;101901.69;5093420;28;19967;-73
2021/11/10 06:22:37;;;;;;;;;;;;;;;-1.62;100.00;101896.38;5093249;28;20026;-73
2021/11/10 06:25:04;;;;;;;;;;;;;;;-1.61;100.00;101910.59;5093513;28;20543;-73
2021/11/10 06:27:30;;;;;;;;;;;;;;;-1.61;100.00;101915.91;5073967;28;20602;-74
2021/11/10 06:29:57;;;;;;;;;;;;;;;-1.63;100.00;101921.25;5092875;28;20027;-73
2021/11/10 06:32:23;;;;;;;;;;;;;;;-1.60;100.00;101921.22;5093319;28;19924;-73
2021/11/10 06:34:49;;;;;;;;;;;;;;;-1.50;100.00;101931.78;5091560;28;20022;-74
2021/11/10 06:37:16;;;;;;;;;;;;;;;-1.43;100.00;101922.78;5092409;28;20023;-73
2021/11/10 06:39:43;;;;;;;;;;;;;;;-1.44;100.00;101921.03;5078025;28;20020;-74
2021/11/10 06:42:10;;;;;;;;;;;;;;;-1.42;100.00;101920.09;5087240;28;20338;-73
2021/11/10 06:44:37;;;;;;;;;;;;;;;-1.41;100.00;101913.88;5090527;28;19949;-72
2021/11/10 06:47:03;;;;;;;;;;;;;;;-1.38;100.00;101908.53;5074716;28;19928;-72
2021/11/10 06:49:30;;;;;;;;;;;;;;;-1.31;100.00;101917.34;5092929;28;20441;-72
2021/11/10 06:51:57;;;;;;;;;;;;;;;-1.23;100.00;101914.53;5092619;28;19971;-72
2021/11/10 06:54:23;;;;;;;;;;;;;;;-1.19;100.00;101908.28;5092632;28;20041;-72
2021/11/10 06:56:51;;;;;;;;;;;;;;;-1.13;100.00;101910.00;5074876;28;19959;-73
2021/11/10 06:59:18;;;;;;;;;;;;;;;-1.06;100.00;101906.34;5092042;28;19928;-72
2021/11/10 07:01:44;;;;;;;;;;;;;;;-0.98;100.00;101900.91;5092660;28;19930;-72
2021/11/10 07:04:11;;;;;;;;;;;;;;;-0.92;100.00;101893.69;5092564;28;20494;-73
2021/11/10 07:06:37;;;;;;;;;;;;;;;-0.81;100.00;101895.34;5092471;28;19967;-72
2021/11/10 07:09:05;;;;;;;;;;;;;;;-0.75;100.00;101896.13;5091364;28;20242;-72
2021/11/10 07:11:34;;;;;;;;;;;;;;;-0.68;100.00;101891.56;5092599;28;20405;-73
2021/11/10 07:14:01;;;;;;;;;;;;;;;-0.62;100.00;101895.91;5092121;28;19928;-73
2021/11/10 07:16:28;;;;;;;;;;;;;;;-0.56;100.00;101899.38;5092233;28;19939;-73
2021/11/10 07:18:55;;;;;;;;;;;;;;;-0.46;100.00;101897.41;5091789;28;20616;-72
2021/11/10 07:21:21;;;;;;;;;;;;;;;-0.31;100.00;101903.41;5091876;28;19952;-72
2021/11/10 07:23:47;;;;;;;;;;;;;;;-0.13;100.00;101902.19;5092183;28;19978;-72
2021/11/10 07:26:14;;;;;;;;;;;;;;;0.01;100.00;101902.81;5090869;28;19977;-73
2021/11/10 07:28:40;;;;;;;;;;;;;;;0.15;100.00;101908.81;5077692;28;19928;-72
2021/11/10 07:31:08;;;;;;;;;;;;;;;0.39;100.00;101906.56;5071840;28;19967;-72
2021/11/10 07:33:34;;;;;;;;;;;;;;;0.54;100.00;101893.81;5090839;28;19959;-71
2021/11/10 07:36:01;;;;;;;;;;;;;;;0.70;100.00;101905.06;5091873;28;19959;-71
2021/11/10 07:38:27;;;;;;;;;;;;;;;0.98;100.00;101913.38;5091664;28;20337;-71
2021/11/10 07:40:54;;;;;;;;;;;;;;;1.40;100.00;101918.63;5085607;28;19928;-72
2021/11/10 07:43:23;;;;;;;;;;;;;;;1.81;100.00;101927.44;5088781;28;19992;-72
2021/11/10 07:45:51;;;;;;;;;;;;;;;2.20;100.00;101928.25;5082964;28;19982;-72
2021/11/10 07:48:19;;;;;;;;;;;;;;;2.54;100.00;101932.66;5091630;28;19969;-71
2021/11/10 07:50:45;;;;;;;;;;;;;;;2.75;100.00;101932.03;5091128;28;19936;-72
2021/11/10 07:53:12;;;;;;;;;;;;;;;2.93;100.00;101921.72;5092005;28;20014;-72
2021/11/10 07:55:39;;;;;;;;;;;;;;;3.15;100.00;101924.59;5091171;28;19936;-73
2021/11/10 07:58:05;;;;;;;;;;;;;;;3.34;100.00;101924.88;5091076;28;19928;-73
2021/11/10 08:00:31;;;;;;;;;;;;;;;3.52;100.00;101929.66;5090749;28;20027;-73
2021/11/10 08:02:58;;;;;;;;;;;;;;;3.63;100.00;101936.50;5091501;28;19964;-73
2021/11/10 08:05:26;;;;;;;;;;;;;;;3.87;100.00;101933.94;5091874;28;20468;-74
2021/11/10 08:07:52;;;;;;;;;;;;;;;3.99;100.00;101934.38;5087998;28;20014;-74
2021/11/10 08:10:18;;;;;;;;;;;;;;;4.02;100.00;101930.69;5091676;28;19924;-73
2021/11/10 08:12:46;;;;;;;;;;;;;;;3.97;100.00;101924.63;5072916;28;19960;-73
2021/11/10 08:15:14;;;;;;;;;;;;;;;3.99;100.00;101929.00;5091215;28;19928;-74
2021/11/10 08:17:40;;;;;;;;;;;;;;;4.07;100.00;101931.44;5090704;28;20407;-74
2021/11/10 08:20:08;;;;;;;;;;;;;;;4.12;100.00;101925.91;5090478;28;20033;-74
2021/11/10 08:22:36;;;;;;;;;;;;;;;4.24;100.00;101921.91;5091130;28;20019;-75
2021/11/10 08:25:03;;;;;;;;;;;;;;;4.29;100.00;101918.13;5090836;28;19924;-74
2021/11/10 08:27:30;;;;;;;;;;;;;;;4.43;100.00;101916.75;5090606;28;19983;-73
2021/11/10 08:29:56;;;;;;;;;;;;;;;4.52;100.00;101906.53;5073020;28;20407;-74
2021/11/10 08:32:23;;;;;;;;;;;;;;;4.53;100.00;101907.41;5090966;28;19969;-74
2021/11/10 08:34:49;;;;;;;;;;;;;;;4.69;100.00;101902.34;5091231;28;19928;-74
2021/11/10 08:37:15;;;;;;;;;;;;;;;4.73;100.00;101903.97;5091250;28;20412;-74
2021/11/10 08:39:43;;;;;;;;;;;;;;;4.80;100.00;101910.88;5090349;28;20019;-73
2021/11/10 08:42:10;;;;;;;;;;;;;;;4.97;100.00;101914.72;5089637;28;20023;-74
2021/11/10 08:44:40;;;;;;;;;;;;;;;5.12;100.00;101910.56;5089078;28;19931;-74
2021/11/10 08:47:07;;;;;;;;;;;;;;;5.24;100.00;101910.06;5091142;28;20022;-73
2021/11/10 08:49:34;;;;;;;;;;;;;;;5.35;100.00;101912.31;5089980;28;20389;-74
2021/11/10 08:52:00;;;;;;;;;;;;;;;5.49;100.00;101901.88;5090585;28;19993;-74
2021/11/10 08:54:26;;;;;;;;;;;;;;;5.43;100.00;101896.72;5090885;28;20018;-74
2021/11/10 08:56:54;;;;;;;;;;;;;;;5.46;100.00;101903.81;5090666;28;20411;-76
2021/11/10 08:59:21;;;;;;;;;;;;;;;5.62;100.00;101912.13;5090945;28;19989;-76
2021/11/10 09:01:49;;;;;;;;;;;;;;;5.84;100.00;101893.25;5091113;28;19955;-76
2021/11/10 09:04:16;;;;;;;;;;;;;;;6.25;100.00;101895.13;5090730;28;19967;-76
2021/11/10 09:06:42;;;;;;;;;;;;;;;6.50;100.00;101893.06;5090691;28;20458;-76
2021/11/10 09:09:09;;;;;;;;;;;;;;;6.60;100.00;101884.53;5090376;28;20415;-76
2021/11/10 09:11:35;;;;;;;;;;;;;;;6.46;100.00;101880.66;5091207;28;20443;-76
2021/11/10 09:14:02;;;;;;;;;;;;;;;6.57;100.00;101876.59;5090611;28;20019;-76
2021/11/10 09:16:29;;;;;;;;;;;;;;;6.49;100.00;101875.13;5090237;28;19979;-76
2021/11/10 09:18:55;;;;;;;;;;;;;;;6.39;100.00;101878.28;5092681;28;20044;-76
2021/11/10 09:21:21;;;;;;;;;;;;;;;6.35;100.00;101878.44;5094453;28;20023;-76
2021/11/10 09:23:48;;;;;;;;;;;;;;;6.49;100.00;101880.53;5094130;28;20069;-76
2021/11/10 09:26:15;;;;;;;;;;;;;;;6.42;100.00;101868.25;5086478;28;19924;-76
2021/11/10 09:28:42;;;;;;;;;;;;;;;6.65;100.00;101863.63;5094395;28;19928;-74
2021/11/10 09:31:09;;;;;;;;;;;;;;;6.50;100.00;101866.06;5093837;28;20388;-74
2021/11/10 09:33:40;;;;;;;;;;;;;;;6.49;100.00;101866.16;5094479;28;19931;-75
2021/11/10 09:36:06;;;;;;;;;;;;;;;6.73;100.00;101861.44;5093532;28;19925;-74
2021/11/10 09:38:32;;;;;;;;;;;;;;;6.77;100.00;101860.34;5093840;28;19977;-75
2021/11/10 09:41:00;;;;;;;;;;;;;;;6.85;100.00;101860.88;5093840;28;19974;-75
2021/11/10 09:43:30;;;;;;;;;;;;;;;6.87;100.00;101861.66;5093725;28;19928;-75
2021/11/10 09:45:57;;;;;;;;;;;;;;;7.27;100.00;101872.38;5092832;28;19959;-75
2021/11/10 09:48:26;;;;;;;;;;;;;;;7.73;100.00;101861.06;5093246;28;20357;-75
2021/11/10 09:50:53;;;;;;;;;;;;;;;8.04;100.00;101862.19;5093530;28;19928;-75
2021/11/10 09:53:20;;;;;;;;;;;;;;;8.03;100.00;101849.59;5095552;28;19954;-74
2021/11/10 09:55:46;;;;;;;;;;;;;;;7.53;100.00;101852.13;5092642;28;20322;-75
2021/11/10 09:58:13;;;;;;;;;;;;;;;7.31;100.00;101852.34;5093345;28;20030;-74
2021/11/10 10:00:42;;;;;;;;;;;;;;;7.25;100.00;101847.25;5088583;28;19952;-74
2021/11/10 10:03:08;;;;;;;;;;;;;;;7.23;100.00;101848.28;5092220;28;19959;-73
2021/11/10 10:05:36;;;;;;;;;;;;;;;7.26;100.00;101850.84;5093597;28;20020;-74
2021/11/10 10:08:04;;;;;;;;;;;;;;;7.24;100.00;101848.19;5093693;28;19932;-74
2021/11/10 10:10:30;;;;;;;;;;;;;;;7.25;100.00;101846.38;5092871;28;20274;-74
2021/11/10 10:12:58;;;;;;;;;;;;;;;7.45;100.00;101837.28;5093713;28;20035;-74
2021/11/10 10:15:27;;;;;;;;;;;;;;;7.73;100.00;101836.75;5093260;28;20019;-73
2021/11/10 10:17:57;;;;;;;;;;;;;;;7.82;100.00;101838.13;5093513;28;19951;-74
2021/11/10 10:20:25;;;;;;;;;;;;;;;7.84;100.00;101841.59;5075518;28;20275;-73
2021/11/10 10:22:54;;;;;;;;;;;;;;;7.74;100.00;101843.91;5093533;28;20374;-74
2021/11/10 10:25:21;;;;;;;;;;;;;;;7.60;100.00;101827.53;5093399;28;19963;-74
2021/11/10 10:27:54;;;;;;;;;;;;;;;7.57;100.00;101819.59;5092543;28;20018;-74
2021/11/10 10:30:25;;;;;;;;;;;;;;;7.56;100.00;101823.22;5092683;28;19963;-74
2021/11/10 10:32:53;;;;;;;;;;;;;;;7.40;100.00;101829.41;5092969;28;20011;-74
2021/11/10 10:35:27;;;;;;;;;;;;;;;7.43;100.00;101840.06;5093396;28;20014;-74
2021/11/10 10:37:55;;;;;;;;;;;;;;;7.35;100.00;101828.78;5092870;28;20019;-74
2021/11/10 10:40:21;;;;;;;;;;;;;;;7.25;100.00;101828.34;5078610;28;20033;-74
2021/11/10 10:42:48;;;;;;;;;;;;;;;7.40;100.00;101828.53;5072891;28;19987;-73
2021/11/10 10:45:25;;;;;;;;;;;;;;;7.53;100.00;101816.16;5091031;28;19958;-74
2021/11/10 10:47:55;;;;;;;;;;;;;;;7.88;100.00;101817.03;5092597;28;20007;-73
2021/11/10 10:50:31;;;;;;;;;;;;;;;8.26;100.00;101809.63;5092711;28;19927;-76
2021/11/10 10:53:00;;;;;;;;;;;;;;;8.72;100.00;101804.44;5092427;28;19924;-75
2021/11/10 10:55:37;;;;;;;;;;;;;;;8.89;100.00;101792.66;5092948;28;19932;-76
2021/11/10 10:58:03;;;;;;;;;;;;;;;9.00;100.00;101792.03;5092502;28;20002;-77
2021/11/10 11:00:33;;;;;;;;;;;;;;;8.89;100.00;101795.38;5092740;28;20105;-73
2021/11/10 11:03:22;;;;;;;;;;;;;;;8.78;100.00;101776.13;5092751;28;19928;-74
2021/11/10 11:05:49;;;;;;;;;;;;;;;9.11;100.00;101781.44;5092764;28;19932;-73
2021/11/10 11:08:26;;;;;;;;;;;;;;;9.34;100.00;101773.78;5092626;28;20019;-74
2021/11/10 11:10:52;;;;;;;;;;;;;;;9.48;100.00;101765.72;5092611;28;19924;-74
2021/11/10 11:13:23;;;;;;;;;;;;;;;9.82;100.00;101771.81;5092758;28;19932;-74
2021/11/10 11:16:01;;;;;;;;;;;;;;;10.02;100.00;101772.41;5092590;28;20395;-74
2021/11/10 11:18:28;;;;;;;;;;;;;;;10.28;100.00;101770.75;5092313;28;20014;-76
2021/11/10 11:20:54;;;;;;;;;;;;;;;10.25;100.00;101773.69;5091662;28;20613;-75
2021/11/10 11:23:20;;;;;;;;;;;;;;;10.18;100.00;101762.34;5092095;28;19978;-74
2021/11/10 11:25:48;;;;;;;;;;;;;;;9.98;100.00;101768.13;5091853;28;19951;-76
2021/11/10 11:28:16;;;;;;;;;;;;;;;10.35;100.00;101771.28;5091618;28;19950;-76
2021/11/10 11:30:43;;;;;;;;;;;;;;;10.39;100.00;101775.53;5091635;28;19931;-76
2021/11/10 11:33:11;;;;;;;;;;;;;;;10.57;100.00;101773.50;5091093;28;19967;-74
2021/11/10 11:35:38;;;;;;;;;;;;;;;10.77;100.00;101774.91;5092008;28;20015;-75
2021/11/10 11:38:06;;;;;;;;;;;;;;;10.46;100.00;101770.59;5092057;28;19950;-73
2021/11/10 11:40:34;;;;;;;;;;;;;;;10.20;100.00;101762.25;5091785;28;19924;-74
2021/11/10 11:43:02;;;;;;;;;;;;;;;10.04;100.00;101756.91;5090897;28;19977;-75
2021/11/10 11:45:29;;;;;;;;;;;;;;;10.24;100.00;101762.94;5091944;28;20007;-74
2021/11/10 11:47:56;;;;;;;;;;;;;;;10.20;100.00;101764.97;5090533;28;19960;-75
2021/11/10 11:50:23;;;;;;;;;;;;;;;10.33;100.00;101756.91;5091836;28;19928;-76
2021/11/10 11:52:50;;;;;;;;;;;;;;;10.34;100.00;101751.38;5091343;28;21294;-75
2021/11/10 11:55:21;;;;;;;;;;;;;;;10.54;100.00;101750.13;5092095;28;20415;-75
2021/11/10 11:57:49;;;;;;;;;;;;;;;10.75;100.00;101752.41;5091253;28;19930;-73
2021/11/10 12:00:18;;;;;;;;;;;;;;;10.53;100.00;101742.97;5089912;28;19928;-75
2021/11/10 12:02:46;;;;;;;;;;;;;;;10.44;100.00;101731.84;5090429;28;20037;-76
2021/11/10 12:05:13;;;;;;;;;;;;;;;10.18;100.00;101737.03;5091578;28;19924;-75
2021/11/10 12:07:40;;;;;;;;;;;;;;;10.17;100.00;101729.88;5091148;28;19982;-75
2021/11/10 12:10:26;;;;;;;;;;;;;;;10.34;100.00;101729.69;5079696;28;19928;-76
2021/11/10 12:13:04;;;;;;;;;;;;;;;10.53;100.00;101732.09;5091404;28;19969;-76
2021/11/10 12:15:58;;;;;;;;;;;;;;;10.66;100.00;101731.28;5091177;28;19963;-75
2021/11/10 12:18:25;;;;;;;;;;;;;;;10.48;100.00;101736.09;5091244;28;20348;-75
2021/11/10 12:20:57;;;;;;;;;;;;;;;10.64;100.00;101727.81;5091125;28;20027;-76
2021/11/10 12:23:24;;;;;;;;;;;;;;;10.82;100.00;101729.31;5093268;28;19949;-76
2021/11/10 12:26:01;;;;;;;;;;;;;;;10.91;100.00;101729.69;5072894;28;20481;-75
2021/11/10 12:28:47;;;;;;;;;;;;;;;11.04;100.00;101723.31;5071065;28;20023;-75
2021/11/10 12:31:28;;;;;;;;;;;;;;;10.98;100.00;101728.28;5086314;28;20030;-75
2021/11/10 12:33:55;;;;;;;;;;;;;;;11.20;100.00;101723.13;5090951;28;19925;-76